Time;durP1;ratioP1;P1;durP2;ratioP2;P2;SDS_P1;SDS_P2;PMS_P1;PMS_P2;Temp;Humidity;BMP_temperature;BMP_pressure;BME280_temperature;BME280_humidity;BME280_pressure;Samples;Min_cycle;Max_cycle;Signal;HPM_P1;HPM_P2
2021/10/02 00:46:25;;;;;;;;;;;;;;;8.25;100.00;99436.66;112261;1194;61033;-89
2021/10/02 00:48:52;;;;;;;;;;;;;;;8.25;100.00;99434.20;112085;1196;61051;-88
2021/10/02 00:51:20;;;;;;;;;;;;;;;8.24;100.00;99437.25;112115;1195;66075;-89
2021/10/02 00:53:47;;;;;;;;;;;;;;;8.22;100.00;99431.87;112259;1196;61049;-88
2021/10/02 00:56:13;;;;;;;;;;;;;;;8.19;100.00;99427.98;112247;1195;61046;-88
2021/10/02 00:58:45;;;;;;;;;;;;;;;8.13;100.00;99425.95;112274;1195;61036;-88
2021/10/02 01:01:14;;;;;;;;;;;;;;;8.10;100.00;99420.42;112302;1196;61087;-89
2021/10/02 01:03:49;;;;;;;;;;;;;;;8.08;100.00;99421.06;112275;1194;64783;-89
2021/10/02 01:06:31;;;;;;;;;;;;;;;8.06;100.00;99419.55;112258;1195;61101;-87
2021/10/02 01:09:03;;;;;;;;;;;;;;;8.04;100.00;99419.65;112256;1196;63774;-87
2021/10/02 01:11:33;;;;;;;;;;;;;;;8.03;100.00;99416.71;112087;1196;61546;-87
2021/10/02 01:14:07;;;;;;;;;;;;;;;8.02;100.00;99419.04;112252;1194;60965;-88
2021/10/02 01:16:36;;;;;;;;;;;;;;;8.00;100.00;99417.90;112272;1195;72603;-88
2021/10/02 01:19:06;;;;;;;;;;;;;;;7.99;100.00;99415.17;112281;1195;61058;-87
2021/10/02 01:21:39;;;;;;;;;;;;;;;7.98;100.00;99413.95;112258;1195;64028;-88
2021/10/02 01:24:09;;;;;;;;;;;;;;;7.98;100.00;99414.14;112269;1195;61055;-87
2021/10/02 01:26:42;;;;;;;;;;;;;;;7.98;100.00;99414.67;112265;1196;60973;-88
2021/10/02 01:29:10;;;;;;;;;;;;;;;7.97;100.00;99409.73;112258;1195;66032;-88
2021/10/02 01:31:45;;;;;;;;;;;;;;;7.98;100.00;99410.95;112271;1196;61003;-87
2021/10/02 01:34:28;;;;;;;;;;;;;;;7.99;100.00;99414.61;112295;1196;64153;-89
2021/10/02 01:48:06;;;;;;;;;;;;;;;7.99;100.00;99411.61;112281;1196;64002;-87
2021/10/02 01:50:35;;;;;;;;;;;;;;;7.97;100.00;99410.64;112332;1194;61036;-87
2021/10/02 01:53:03;;;;;;;;;;;;;;;7.95;100.00;99407.22;112370;1196;60991;-87
2021/10/02 01:55:30;;;;;;;;;;;;;;;7.92;100.00;99405.43;112806;1174;64635;-88
2021/10/02 01:57:58;;;;;;;;;;;;;;;7.89;100.00;99405.00;112469;1193;60950;-88
2021/10/02 02:00:29;;;;;;;;;;;;;;;7.88;100.00;99402.95;112566;1193;62652;-89
2021/10/02 02:02:57;;;;;;;;;;;;;;;7.86;100.00;99405.71;112309;1193;61064;-89
2021/10/02 02:05:25;;;;;;;;;;;;;;;7.81;100.00;99403.66;112241;1193;61042;-89
2021/10/02 02:07:55;;;;;;;;;;;;;;;7.78;100.00;99405.55;112298;1193;64693;-91
2021/10/02 02:10:22;;;;;;;;;;;;;;;7.73;100.00;99404.75;112207;1193;61106;-90
2021/10/02 02:12:50;;;;;;;;;;;;;;;7.68;100.00;99400.54;112328;1193;62322;-88
2021/10/02 02:15:17;;;;;;;;;;;;;;;7.67;100.00;99403.08;112378;1194;61068;-89
2021/10/02 02:17:45;;;;;;;;;;;;;;;7.66;100.00;99399.05;112229;1193;61065;-89
2021/10/02 02:20:17;;;;;;;;;;;;;;;7.66;100.00;99395.70;112263;1193;65879;-90
2021/10/02 02:22:43;;;;;;;;;;;;;;;7.66;100.00;99391.80;112264;1193;61027;-91
2021/10/02 02:25:10;;;;;;;;;;;;;;;7.66;100.00;99388.98;112262;1193;63997;-90
2021/10/02 02:27:36;;;;;;;;;;;;;;;7.64;100.00;99388.73;112291;1193;61642;-90
2021/10/02 02:30:03;;;;;;;;;;;;;;;7.63;100.00;99385.42;112276;1193;61026;-93
2021/10/02 02:32:30;;;;;;;;;;;;;;;7.62;100.00;99384.38;112297;1193;65985;-88
2021/10/02 02:34:56;;;;;;;;;;;;;;;7.64;100.00;99387.13;112283;1193;61020;-88
2021/10/02 02:37:23;;;;;;;;;;;;;;;7.64;100.00;99383.96;112290;1193;62627;-89
2021/10/02 02:39:49;;;;;;;;;;;;;;;7.64;100.00;99380.23;112244;1193;61032;-90
2021/10/02 02:42:16;;;;;;;;;;;;;;;7.64;100.00;99378.98;112244;1194;61151;-90
2021/10/02 02:44:43;;;;;;;;;;;;;;;7.62;100.00;99376.96;112257;1193;66045;-88
2021/10/02 02:47:15;;;;;;;;;;;;;;;7.58;100.00;99372.38;112250;1196;61033;-88
2021/10/02 02:49:51;;;;;;;;;;;;;;;7.55;100.00;99372.36;112236;1193;62661;-87
2021/10/02 02:52:23;;;;;;;;;;;;;;;7.50;100.00;99372.42;112273;1193;61049;-87
2021/10/02 02:54:55;;;;;;;;;;;;;;;7.47;100.00;99371.85;112235;1193;60989;-87
2021/10/02 02:57:25;;;;;;;;;;;;;;;7.45;100.00;99366.10;112222;1194;66065;-88
2021/10/02 02:59:58;;;;;;;;;;;;;;;7.45;100.00;99367.89;112262;1193;61046;-89
2021/10/02 03:02:25;;;;;;;;;;;;;;;7.45;100.00;99373.20;112271;1194;64093;-88
2021/10/02 03:04:53;;;;;;;;;;;;;;;7.46;100.00;99372.23;112214;1196;61019;-89
2021/10/02 03:07:21;;;;;;;;;;;;;;;7.47;100.00;99371.12;112225;1193;60979;-89
2021/10/02 03:09:51;;;;;;;;;;;;;;;7.47;100.00;99366.52;112277;1193;64666;-88
2021/10/02 03:12:21;;;;;;;;;;;;;;;7.48;100.00;99362.41;112283;1195;61023;-87
2021/10/02 03:14:50;;;;;;;;;;;;;;;7.48;100.00;99361.38;112424;1194;63693;-89
2021/10/02 03:17:16;;;;;;;;;;;;;;;7.47;100.00;99361.07;112488;1195;61061;-87
2021/10/02 03:19:44;;;;;;;;;;;;;;;7.47;100.00;99360.02;112277;1193;60998;-89
2021/10/02 03:22:11;;;;;;;;;;;;;;;7.48;100.00;99356.61;112382;1194;65996;-89
2021/10/02 03:24:39;;;;;;;;;;;;;;;7.47;100.00;99354.34;112354;1193;60923;-89
2021/10/02 03:27:09;;;;;;;;;;;;;;;7.46;100.00;99356.70;112221;1194;62733;-88
2021/10/02 03:29:36;;;;;;;;;;;;;;;7.44;100.00;99354.16;112226;1194;60987;-89
2021/10/02 03:32:04;;;;;;;;;;;;;;;7.42;100.00;99358.67;112305;1193;60979;-89
2021/10/02 03:34:31;;;;;;;;;;;;;;;7.41;100.00;99355.18;112215;1196;66018;-87
2021/10/02 03:36:58;;;;;;;;;;;;;;;7.40;100.00;99350.09;112246;1193;60953;-87
2021/10/02 03:39:25;;;;;;;;;;;;;;;7.41;100.00;99350.77;112246;1194;64001;-87
2021/10/02 03:42:04;;;;;;;;;;;;;;;7.43;100.00;99346.23;112263;1193;61055;-87
2021/10/02 03:44:30;;;;;;;;;;;;;;;7.43;100.00;99346.95;112287;1194;61049;-87
2021/10/02 03:46:57;;;;;;;;;;;;;;;7.44;100.00;99347.63;112220;1193;64934;-87
2021/10/02 03:49:23;;;;;;;;;;;;;;;7.43;100.00;99345.73;112302;1193;61051;-91
2021/10/02 03:51:49;;;;;;;;;;;;;;;7.42;100.00;99343.47;112310;1193;61060;-87
2021/10/02 03:54:16;;;;;;;;;;;;;;;7.40;100.00;99346.39;112305;1194;61068;-87
2021/10/02 03:56:42;;;;;;;;;;;;;;;7.39;100.00;99348.19;112201;1193;61080;-87
2021/10/02 03:59:09;;;;;;;;;;;;;;;7.40;100.00;99343.77;112326;1193;61209;-89
2021/10/02 04:01:35;;;;;;;;;;;;;;;7.38;100.00;99341.20;112249;1195;61001;-88
2021/10/02 04:04:02;;;;;;;;;;;;;;;7.37;100.00;99345.85;112280;1193;61065;-89
2021/10/02 04:06:29;;;;;;;;;;;;;;;7.36;100.00;99347.67;112232;1196;61084;-88
2021/10/02 04:08:55;;;;;;;;;;;;;;;7.35;100.00;99351.94;112236;1193;61017;-87
2021/10/02 04:11:22;;;;;;;;;;;;;;;7.35;100.00;99351.09;112271;1193;60998;-87
2021/10/02 04:13:48;;;;;;;;;;;;;;;7.34;100.00;99353.08;112270;1193;61048;-89
2021/10/02 04:16:15;;;;;;;;;;;;;;;7.32;100.00;99353.67;112297;1194;61039;-88
2021/10/02 04:18:41;;;;;;;;;;;;;;;7.30;100.00;99357.13;112232;1194;61045;-88
2021/10/02 04:21:08;;;;;;;;;;;;;;;7.28;100.00;99356.35;112260;1193;61587;-88
2021/10/02 04:23:34;;;;;;;;;;;;;;;7.24;100.00;99355.27;112300;1193;60988;-88
2021/10/02 04:26:01;;;;;;;;;;;;;;;7.23;100.00;99356.77;112265;1196;61024;-88
2021/10/02 04:28:27;;;;;;;;;;;;;;;7.22;100.00;99354.34;112235;1193;60998;-88
2021/10/02 04:30:54;;;;;;;;;;;;;;;7.22;100.00;99353.11;112244;1194;61134;-88
2021/10/02 04:33:21;;;;;;;;;;;;;;;7.21;100.00;99354.55;112249;1193;60991;-87
2021/10/02 04:35:48;;;;;;;;;;;;;;;7.20;100.00;99354.93;112228;1193;66009;-88
2021/10/02 04:38:14;;;;;;;;;;;;;;;7.20;100.00;99354.05;112297;1193;61068;-88
2021/10/02 04:40:40;;;;;;;;;;;;;;;7.20;100.00;99352.81;112243;1195;61138;-89
2021/10/02 04:43:07;;;;;;;;;;;;;;;7.19;100.00;99353.75;112237;1193;61045;-87
2021/10/02 04:45:34;;;;;;;;;;;;;;;7.19;100.00;99356.94;112204;1195;61181;-87
2021/10/02 04:48:00;;;;;;;;;;;;;;;7.19;100.00;99357.64;112278;1196;66030;-87
2021/10/02 04:50:27;;;;;;;;;;;;;;;7.18;100.00;99355.73;112231;1195;60943;-87
2021/10/02 04:52:55;;;;;;;;;;;;;;;7.18;100.00;99357.17;112234;1193;61032;-88
2021/10/02 04:55:21;;;;;;;;;;;;;;;7.19;100.00;99356.79;112202;1195;61157;-87
2021/10/02 04:57:48;;;;;;;;;;;;;;;7.19;100.00;99356.59;112277;1193;60982;-88
2021/10/02 05:00:15;;;;;;;;;;;;;;;7.21;100.00;99356.52;112298;1193;66022;-88
2021/10/02 05:02:42;;;;;;;;;;;;;;;7.24;100.00;99359.36;112306;1193;61049;-90
2021/10/02 05:05:08;;;;;;;;;;;;;;;7.29;100.00;99363.39;112240;1193;61151;-87
2021/10/02 05:07:35;;;;;;;;;;;;;;;7.32;100.00;99362.54;112225;1194;61036;-87
2021/10/02 05:10:02;;;;;;;;;;;;;;;7.36;100.00;99364.96;112216;1195;61030;-90
2021/10/02 05:12:28;;;;;;;;;;;;;;;7.41;100.00;99361.20;112262;1196;64790;-90
2021/10/02 05:14:55;;;;;;;;;;;;;;;7.44;100.00;99357.88;112277;1194;61171;-88
2021/10/02 05:17:22;;;;;;;;;;;;;;;7.45;100.00;99354.45;112273;1196;61039;-88
2021/10/02 05:19:50;;;;;;;;;;;;;;;7.47;100.00;99358.06;112308;1194;61059;-88
2021/10/02 05:22:17;;;;;;;;;;;;;;;7.54;100.00;99355.80;112272;1193;61161;-88
2021/10/02 05:24:43;;;;;;;;;;;;;;;7.59;100.00;99352.88;112031;1196;64717;-88
2021/10/02 05:27:10;;;;;;;;;;;;;;;7.64;100.00;99351.55;112284;1193;60911;-88
2021/10/02 05:29:38;;;;;;;;;;;;;;;7.72;100.00;99351.92;112290;1196;63801;-89
2021/10/02 05:32:05;;;;;;;;;;;;;;;7.79;100.00;99347.48;112227;1195;61161;-91
2021/10/02 05:34:32;;;;;;;;;;;;;;;7.85;100.00;99350.73;112329;1193;61065;-91
2021/10/02 05:36:58;;;;;;;;;;;;;;;7.89;100.00;99351.23;112213;1194;66030;-88
2021/10/02 05:39:25;;;;;;;;;;;;;;;7.93;100.00;99355.48;112367;1194;61042;-88
2021/10/02 05:41:52;;;;;;;;;;;;;;;7.93;100.00;99358.66;112225;1193;62648;-91
2021/10/02 05:44:19;;;;;;;;;;;;;;;7.98;100.00;99356.30;112236;1196;61234;-89
2021/10/02 05:46:46;;;;;;;;;;;;;;;8.06;100.00;99354.27;112306;1193;61042;-90
2021/10/02 05:49:12;;;;;;;;;;;;;;;8.10;100.00;99358.31;112249;1193;66134;-90
2021/10/02 05:51:40;;;;;;;;;;;;;;;8.10;100.00;99357.80;112265;1196;61065;-89
2021/10/02 05:54:09;;;;;;;;;;;;;;;8.12;100.00;99354.29;112219;1195;64038;-90
2021/10/02 05:56:36;;;;;;;;;;;;;;;8.22;100.00;99349.55;112295;1193;61064;-88
2021/10/02 05:59:04;;;;;;;;;;;;;;;8.34;100.00;99353.72;112385;1193;61033;-89
2021/10/02 06:01:31;;;;;;;;;;;;;;;8.45;100.00;99356.17;112383;1193;67007;-91
2021/10/02 06:03:57;;;;;;;;;;;;;;;8.54;100.00;99354.84;112273;1197;61036;-89
2021/10/02 06:06:24;;;;;;;;;;;;;;;8.60;100.00;99361.06;112383;1193;61045;-89
2021/10/02 06:08:51;;;;;;;;;;;;;;;8.64;100.00;99363.86;112678;1195;60976;-90
2021/10/02 06:11:18;;;;;;;;;;;;;;;8.68;100.00;99362.08;113230;1195;61059;-88
2021/10/02 06:13:47;;;;;;;;;;;;;;;8.74;100.00;99362.11;112769;1193;66214;-90
2021/10/02 06:16:14;;;;;;;;;;;;;;;8.86;100.00;99368.36;113488;1193;61062;-89
2021/10/02 06:18:41;;;;;;;;;;;;;;;8.93;100.00;99364.80;113151;1193;63949;-88
2021/10/02 06:21:11;;;;;;;;;;;;;;;9.00;100.00;99371.88;112210;1196;61135;-90
2021/10/02 06:23:38;;;;;;;;;;;;;;;9.09;100.00;99375.10;112238;1196;60979;-90
2021/10/02 06:26:05;;;;;;;;;;;;;;;9.14;99.83;99371.95;112324;1193;64681;-91
2021/10/02 06:28:32;;;;;;;;;;;;;;;9.20;99.79;99373.59;112256;1193;61046;-89
2021/10/02 06:30:58;;;;;;;;;;;;;;;9.29;99.94;99373.48;112246;1196;62702;-90
2021/10/02 06:33:25;;;;;;;;;;;;;;;9.41;99.76;99371.36;112370;1193;61033;-89
2021/10/02 06:35:51;;;;;;;;;;;;;;;9.51;99.60;99374.02;112191;1194;61107;-89
2021/10/02 06:38:18;;;;;;;;;;;;;;;9.62;99.49;99371.56;112338;1194;64684;-90
2021/10/02 06:40:44;;;;;;;;;;;;;;;9.70;99.12;99366.72;112227;1194;61677;-90
2021/10/02 06:43:11;;;;;;;;;;;;;;;9.76;99.11;99366.69;112275;1193;64104;-89
2021/10/02 06:45:38;;;;;;;;;;;;;;;9.81;99.02;99367.80;112289;1193;61151;-90
2021/10/02 06:48:05;;;;;;;;;;;;;;;9.81;98.84;99366.22;112228;1194;61058;-89
2021/10/02 06:50:32;;;;;;;;;;;;;;;9.79;98.64;99365.33;112243;1196;66023;-90
2021/10/02 06:52:59;;;;;;;;;;;;;;;9.76;98.70;99365.28;112258;1193;61059;-89
2021/10/02 06:55:26;;;;;;;;;;;;;;;9.80;99.02;99364.14;112289;1193;63840;-90
2021/10/02 06:57:53;;;;;;;;;;;;;;;9.87;99.06;99362.54;112246;1195;61162;-90
2021/10/02 07:00:20;;;;;;;;;;;;;;;9.93;99.06;99360.23;112251;1193;61505;-89
2021/10/02 07:02:46;;;;;;;;;;;;;;;10.00;99.19;99366.88;112246;1196;65914;-90
2021/10/02 07:05:15;;;;;;;;;;;;;;;10.10;99.25;99369.52;112217;1195;60955;-89
2021/10/02 07:07:42;;;;;;;;;;;;;;;10.17;98.90;99371.64;112349;1193;62663;-90
2021/10/02 07:10:09;;;;;;;;;;;;;;;10.24;98.93;99368.19;112262;1194;61132;-89
2021/10/02 07:12:36;;;;;;;;;;;;;;;10.31;98.79;99364.20;112309;1193;61061;-91
2021/10/02 07:15:06;;;;;;;;;;;;;;;10.39;98.76;99363.24;112278;1194;66065;-90
2021/10/02 07:17:33;;;;;;;;;;;;;;;10.50;98.95;99363.27;112333;1193;61148;-88
2021/10/02 07:20:00;;;;;;;;;;;;;;;10.59;98.70;99361.63;112372;1193;62606;-89
2021/10/02 07:22:26;;;;;;;;;;;;;;;10.68;98.52;99367.84;112269;1193;60966;-88
2021/10/02 07:24:53;;;;;;;;;;;;;;;10.74;98.41;99365.70;112323;1193;61078;-89
2021/10/02 07:27:19;;;;;;;;;;;;;;;10.84;98.56;99368.31;112255;1193;61112;-90
2021/10/02 07:29:46;;;;;;;;;;;;;;;10.94;98.36;99366.20;112253;1193;61046;-89
2021/10/02 07:32:12;;;;;;;;;;;;;;;11.01;98.26;99359.73;112251;1193;62645;-89
2021/10/02 07:34:39;;;;;;;;;;;;;;;11.13;98.32;99364.70;112228;1193;61087;-88
2021/10/02 07:37:05;;;;;;;;;;;;;;;11.21;97.80;99363.62;112257;1196;60954;-89
2021/10/02 07:39:32;;;;;;;;;;;;;;;11.26;97.66;99362.24;112210;1195;60979;-89
2021/10/02 07:41:59;;;;;;;;;;;;;;;11.32;97.58;99364.35;112352;1193;61069;-88
2021/10/02 07:44:29;;;;;;;;;;;;;;;11.44;97.83;99364.82;112309;1193;62692;-88
2021/10/02 07:46:56;;;;;;;;;;;;;;;11.61;97.91;99359.48;112508;1194;61052;-89
2021/10/02 07:49:24;;;;;;;;;;;;;;;11.79;97.98;99359.35;112221;1193;60959;-89
2021/10/02 07:51:52;;;;;;;;;;;;;;;11.94;97.68;99355.17;112256;1195;66080;-91
2021/10/02 07:54:19;;;;;;;;;;;;;;;12.10;97.56;99361.08;112308;1194;61056;-88
2021/10/02 07:56:45;;;;;;;;;;;;;;;12.24;97.42;99361.15;112260;1193;63667;-91
2021/10/02 07:59:12;;;;;;;;;;;;;;;12.37;97.06;99357.77;112294;1195;61050;-89
2021/10/02 08:01:39;;;;;;;;;;;;;;;12.40;96.44;99355.45;112265;1194;61499;-89
2021/10/02 08:04:06;;;;;;;;;;;;;;;12.44;96.32;99352.55;112234;1195;66019;-89
2021/10/02 08:06:34;;;;;;;;;;;;;;;12.48;96.13;99354.19;112005;1193;61020;-88
2021/10/02 08:09:01;;;;;;;;;;;;;;;12.57;96.21;99353.58;112319;1193;62657;-89
2021/10/02 08:11:28;;;;;;;;;;;;;;;12.66;95.90;99356.31;112266;1194;61212;-89
2021/10/02 08:13:56;;;;;;;;;;;;;;;12.78;95.94;99355.89;112277;1194;60955;-88
2021/10/02 08:16:26;;;;;;;;;;;;;;;12.90;95.85;99351.43;112353;1194;66040;-89
2021/10/02 08:18:55;;;;;;;;;;;;;;;13.06;95.77;99352.08;112289;1193;61078;-89
2021/10/02 08:21:22;;;;;;;;;;;;;;;13.20;95.52;99352.33;112292;1195;63114;-89
2021/10/02 08:23:50;;;;;;;;;;;;;;;13.30;95.16;99357.35;112290;1193;61091;-89
2021/10/02 08:26:19;;;;;;;;;;;;;;;13.37;94.70;99357.19;112293;1193;60985;-89
2021/10/02 08:28:46;;;;;;;;;;;;;;;13.41;93.96;99358.39;112277;1195;64804;-89
2021/10/02 08:31:14;;;;;;;;;;;;;;;13.45;93.95;99354.36;112285;1196;61072;-89
2021/10/02 08:33:41;;;;;;;;;;;;;;;13.53;94.23;99356.92;112292;1196;64160;-89
2021/10/02 08:36:08;;;;;;;;;;;;;;;13.68;94.33;99355.48;112200;1194;60954;-89
2021/10/02 08:38:35;;;;;;;;;;;;;;;13.84;94.23;99357.85;112236;1193;61097;-89
2021/10/02 08:41:03;;;;;;;;;;;;;;;13.98;94.14;99353.42;112309;1194;66136;-89
2021/10/02 08:43:31;;;;;;;;;;;;;;;14.09;93.98;99352.56;112247;1193;61075;-89
2021/10/02 08:45:58;;;;;;;;;;;;;;;14.22;93.79;99353.59;112290;1194;62741;-90
2021/10/02 08:48:26;;;;;;;;;;;;;;;14.36;93.66;99346.92;112282;1193;60986;-88
2021/10/02 08:50:55;;;;;;;;;;;;;;;14.52;93.53;99342.00;112281;1193;60986;-89
2021/10/02 08:53:24;;;;;;;;;;;;;;;14.63;93.33;99340.92;112278;1195;65922;-85
2021/10/02 08:55:52;;;;;;;;;;;;;;;14.74;93.17;99340.27;112338;1193;60982;-88
2021/10/02 08:58:18;;;;;;;;;;;;;;;14.85;92.95;99332.98;112301;1193;64003;-88
2021/10/02 09:00:45;;;;;;;;;;;;;;;14.99;92.72;99330.98;112276;1193;61087;-88
2021/10/02 09:03:12;;;;;;;;;;;;;;;15.14;92.33;99333.67;112307;1193;61043;-88
2021/10/02 09:05:38;;;;;;;;;;;;;;;15.24;91.69;99336.79;112303;1193;64667;-88
2021/10/02 09:08:05;;;;;;;;;;;;;;;15.35;91.31;99338.63;112277;1197;61058;-88
2021/10/02 09:10:33;;;;;;;;;;;;;;;15.41;90.48;99337.05;112363;1194;64014;-88
2021/10/02 09:13:01;;;;;;;;;;;;;;;15.47;90.10;99334.23;112736;1193;61049;-89
2021/10/02 09:15:28;;;;;;;;;;;;;;;15.53;89.84;99335.16;112270;1193;61048;-88
2021/10/02 09:17:56;;;;;;;;;;;;;;;15.64;89.72;99331.10;112222;1194;64738;-88
2021/10/02 09:20:23;;;;;;;;;;;;;;;15.75;89.54;99326.77;112264;1193;61055;-87
2021/10/02 09:23:00;;;;;;;;;;;;;;;15.87;89.38;99324.15;112223;1193;63743;-87
2021/10/02 09:25:29;;;;;;;;;;;;;;;15.98;88.81;99321.80;112331;1193;61071;-89
2021/10/02 09:28:03;;;;;;;;;;;;;;;16.08;88.27;99315.73;112341;1194;61057;-89
2021/10/02 09:30:30;;;;;;;;;;;;;;;16.19;87.33;99311.11;112303;1194;64785;-88
2021/10/02 09:33:04;;;;;;;;;;;;;;;16.33;87.08;99310.44;112317;1193;61091;-87
2021/10/02 09:35:34;;;;;;;;;;;;;;;16.45;86.59;99313.32;112286;1194;63841;-87
2021/10/02 09:38:01;;;;;;;;;;;;;;;16.58;86.11;99321.20;112267;1193;60985;-87
2021/10/02 09:40:28;;;;;;;;;;;;;;;16.73;86.31;99323.27;112255;1193;61041;-87
2021/10/02 09:42:56;;;;;;;;;;;;;;;16.90;86.25;99318.42;112256;1194;64742;-87
2021/10/02 09:45:27;;;;;;;;;;;;;;;17.05;85.91;99315.59;112340;1194;61039;-87
2021/10/02 09:47:56;;;;;;;;;;;;;;;17.17;85.38;99310.98;112563;1195;62682;-90
2021/10/02 09:50:24;;;;;;;;;;;;;;;17.30;85.35;99310.52;112275;1196;61037;-90
2021/10/02 09:52:54;;;;;;;;;;;;;;;17.45;84.86;99308.99;112696;1195;61030;-86
2021/10/02 09:55:31;;;;;;;;;;;;;;;17.56;84.75;99300.81;112718;1174;65832;31
2021/10/02 09:58:09;;;;;;;;;;;;;;;17.70;84.41;99303.30;112474;1195;60983;-89
2021/10/02 10:00:38;;;;;;;;;;;;;;;17.84;84.07;99304.98;112557;1195;64014;-86
2021/10/02 10:03:06;;;;;;;;;;;;;;;17.93;83.78;99304.80;111992;1197;61103;-90
2021/10/02 10:05:37;;;;;;;;;;;;;;;18.07;83.56;99301.61;112314;1196;61038;-88
2021/10/02 10:08:05;;;;;;;;;;;;;;;18.17;83.17;99297.05;112061;1195;64483;-89
2021/10/02 10:10:33;;;;;;;;;;;;;;;18.26;80.77;99297.46;112125;1195;60978;-89
2021/10/02 10:13:11;;;;;;;;;;;;;;;18.36;79.65;99296.17;112122;1195;62357;-87
2021/10/02 10:15:42;;;;;;;;;;;;;;;18.46;77.74;99296.30;112128;1195;61059;-86
2021/10/02 10:18:13;;;;;;;;;;;;;;;18.57;77.32;99292.58;112118;1195;61063;-86
2021/10/02 10:20:50;;;;;;;;;;;;;;;18.70;77.13;99289.30;112088;1195;66115;-88
2021/10/02 10:23:29;;;;;;;;;;;;;;;18.81;75.64;99289.70;112164;1195;61048;-92
2021/10/02 10:25:59;;;;;;;;;;;;;;;18.87;74.95;99282.16;112095;1196;64138;-90
2021/10/02 10:28:31;;;;;;;;;;;;;;;18.91;74.89;99278.02;111909;1195;61591;-90
2021/10/02 10:31:13;;;;;;;;;;;;;;;18.97;74.75;99280.45;111919;1195;61503;-84
2021/10/02 10:33:41;;;;;;;;;;;;;;;19.05;73.21;99278.89;112100;1195;66306;-81
2021/10/02 10:36:08;;;;;;;;;;;;;;;19.11;72.53;99280.53;112078;1195;60957;-89
2021/10/02 10:38:35;;;;;;;;;;;;;;;19.14;72.67;99276.77;112236;1196;62941;-82
2021/10/02 10:41:03;;;;;;;;;;;;;;;19.20;72.14;99273.30;112029;1195;61070;-85
2021/10/02 10:43:31;;;;;;;;;;;;;;;19.25;71.96;99270.66;112066;1195;61036;-87
2021/10/02 10:46:01;;;;;;;;;;;;;;;19.28;71.65;99272.84;112074;1195;66030;-82
2021/10/02 10:48:28;;;;;;;;;;;;;;;19.31;70.44;99273.54;111937;1195;60960;-82
2021/10/02 10:51:00;;;;;;;;;;;;;;;19.35;70.43;99274.60;111899;1195;64985;-81
2021/10/02 10:53:33;;;;;;;;;;;;;;;19.38;69.86;99267.54;111920;1195;61040;-82
2021/10/02 10:56:00;;;;;;;;;;;;;;;19.43;69.82;99262.93;111983;1195;61004;-82
2021/10/02 10:58:28;;;;;;;;;;;;;;;19.50;70.33;99262.41;111945;1195;66982;-83
2021/10/02 11:00:55;;;;;;;;;;;;;;;19.59;68.95;99262.65;111925;1195;61400;-82
2021/10/02 11:03:35;;;;;;;;;;;;;;;19.59;67.90;99255.94;111967;1195;62657;-83
2021/10/02 11:06:02;;;;;;;;;;;;;;;19.55;66.55;99250.45;112005;1195;60991;-83
2021/10/02 11:08:48;;;;;;;;;;;;;;;19.50;66.90;99250.31;111873;1196;61096;-81
2021/10/02 11:11:15;;;;;;;;;;;;;;;19.49;66.64;99245.40;111867;1196;66027;-82
2021/10/02 11:13:42;;;;;;;;;;;;;;;19.50;66.49;99246.54;111804;1196;61068;-82
2021/10/02 11:16:27;;;;;;;;;;;;;;;19.53;66.50;99244.28;111831;1196;61100;-82
2021/10/02 11:18:54;;;;;;;;;;;;;;;19.57;65.47;99246.41;111914;1196;61079;-82
2021/10/02 11:21:20;;;;;;;;;;;;;;;19.57;64.95;99246.05;111905;1195;61040;-82
2021/10/02 11:24:07;;;;;;;;;;;;;;;19.56;65.18;99243.83;111923;1195;61078;-82
2021/10/02 11:26:40;;;;;;;;;;;;;;;19.57;65.53;99242.77;112020;1196;61093;-82
2021/10/02 11:29:22;;;;;;;;;;;;;;;19.62;65.50;99241.37;111873;1195;64051;-82
2021/10/02 11:31:50;;;;;;;;;;;;;;;19.69;65.27;99240.73;111905;1195;61097;-82
2021/10/02 11:34:17;;;;;;;;;;;;;;;19.69;64.44;99240.51;111813;1195;61149;-82
2021/10/02 11:36:46;;;;;;;;;;;;;;;19.65;64.26;99238.05;111918;1195;66077;-82
2021/10/02 11:39:15;;;;;;;;;;;;;;;19.64;64.32;99239.91;111906;1195;61065;-82
2021/10/02 11:41:47;;;;;;;;;;;;;;;19.67;64.32;99239.66;111910;1195;62691;-82
2021/10/02 11:44:22;;;;;;;;;;;;;;;19.64;62.98;99240.50;111896;1195;61039;-82
2021/10/02 11:46:54;;;;;;;;;;;;;;;19.58;62.75;99241.66;111971;1195;61059;-83
2021/10/02 11:49:21;;;;;;;;;;;;;;;19.55;62.19;99240.11;112020;1195;64357;-84
2021/10/02 11:52:06;;;;;;;;;;;;;;;19.53;62.48;99239.21;111862;1196;60976;-84
2021/10/02 11:54:33;;;;;;;;;;;;;;;19.52;62.08;99237.52;111844;1196;64031;-84
2021/10/02 11:57:09;;;;;;;;;;;;;;;19.54;62.51;99240.37;111801;1196;61090;-81
2021/10/02 11:59:40;;;;;;;;;;;;;;;19.56;62.28;99235.16;111907;1196;61066;-83
2021/10/02 12:02:06;;;;;;;;;;;;;;;19.57;62.03;99235.66;111862;1196;64683;-83
2021/10/02 12:04:33;;;;;;;;;;;;;;;19.57;62.26;99233.84;111823;1196;61034;-83
2021/10/02 12:07:00;;;;;;;;;;;;;;;19.60;62.95;99233.52;111822;1196;63738;-82
2021/10/02 12:09:29;;;;;;;;;;;;;;;19.65;63.32;99228.13;111762;1196;61026;-83
2021/10/02 12:11:56;;;;;;;;;;;;;;;19.68;62.31;99229.15;111744;1198;61031;-84
2021/10/02 12:14:24;;;;;;;;;;;;;;;19.68;62.49;99232.56;111888;1196;64422;-81
2021/10/02 12:17:02;;;;;;;;;;;;;;;19.68;61.74;99227.73;111889;1196;60992;-82
2021/10/02 12:19:30;;;;;;;;;;;;;;;19.67;62.25;99223.65;111821;1196;63846;-83
2021/10/02 12:21:56;;;;;;;;;;;;;;;19.69;62.64;99221.45;111920;1196;61063;-82
2021/10/02 12:24:33;;;;;;;;;;;;;;;19.71;62.39;99218.02;111919;1196;61106;-82
2021/10/02 12:27:00;;;;;;;;;;;;;;;19.71;62.09;99210.55;111707;1198;66056;-82
2021/10/02 12:29:29;;;;;;;;;;;;;;;19.75;61.65;99213.08;111814;1196;60998;-83
2021/10/02 12:31:55;;;;;;;;;;;;;;;19.73;61.09;99215.04;111870;1196;63771;-82
2021/10/02 12:34:26;;;;;;;;;;;;;;;19.69;60.76;99218.55;111831;1196;61055;-82
2021/10/02 12:36:56;;;;;;;;;;;;;;;19.67;61.11;99216.45;111834;1196;61118;-83
2021/10/02 12:39:42;;;;;;;;;;;;;;;19.66;60.82;99211.45;111906;1196;65849;-83
2021/10/02 12:42:10;;;;;;;;;;;;;;;19.68;61.66;99211.44;111883;1196;61020;-83
2021/10/02 12:44:39;;;;;;;;;;;;;;;19.70;61.47;99208.27;111888;1196;62651;-84
2021/10/02 12:47:07;;;;;;;;;;;;;;;19.73;61.41;99210.56;111873;1196;61072;-83
2021/10/02 12:49:42;;;;;;;;;;;;;;;19.77;61.15;99214.20;111887;1196;61044;-84
2021/10/02 12:52:09;;;;;;;;;;;;;;;19.77;61.08;99214.34;111884;1196;66045;-83
2021/10/02 12:54:36;;;;;;;;;;;;;;;19.79;61.66;99212.91;111867;1196;61018;-83
2021/10/02 12:57:05;;;;;;;;;;;;;;;19.81;61.58;99209.62;111830;1196;62670;-84
2021/10/02 12:59:42;;;;;;;;;;;;;;;19.82;61.00;99205.13;112045;1195;61037;-82
2021/10/02 13:02:09;;;;;;;;;;;;;;;19.82;60.57;99206.21;111819;1196;61709;-82
2021/10/02 13:04:36;;;;;;;;;;;;;;;19.82;60.39;99206.68;111868;1196;64912;-83
2021/10/02 13:07:03;;;;;;;;;;;;;;;19.81;60.74;99207.31;111871;1197;61074;-82
2021/10/02 13:09:30;;;;;;;;;;;;;;;19.82;60.83;99210.56;111838;1196;62623;-83
2021/10/02 13:12:07;;;;;;;;;;;;;;;19.82;60.71;99205.50;111844;1196;60986;-82
2021/10/02 13:14:35;;;;;;;;;;;;;;;19.82;60.73;99201.91;111857;1196;61112;-81
2021/10/02 13:17:03;;;;;;;;;;;;;;;19.81;60.70;99201.52;111862;1196;64532;-80
2021/10/02 13:19:30;;;;;;;;;;;;;;;19.81;60.90;99198.54;111814;1196;61734;-85
2021/10/02 13:22:12;;;;;;;;;;;;;;;19.84;60.31;99197.06;111868;1196;63672;-84
2021/10/02 13:24:59;;;;;;;;;;;;;;;19.84;60.44;99195.00;111857;1196;61019;-84
2021/10/02 13:27:35;;;;;;;;;;;;;;;19.85;60.35;99194.54;111889;1196;60993;-84
2021/10/02 13:30:07;;;;;;;;;;;;;;;19.83;59.85;99194.02;112028;1196;66970;-83
2021/10/02 13:32:34;;;;;;;;;;;;;;;19.84;60.16;99191.83;111951;1196;61041;-82
2021/10/02 13:35:05;;;;;;;;;;;;;;;19.84;60.09;99192.30;111789;1197;64706;-84
2021/10/02 13:37:32;;;;;;;;;;;;;;;19.81;59.97;99193.05;111803;1196;61081;-83
2021/10/02 13:40:02;;;;;;;;;;;;;;;19.76;60.37;99197.17;111871;1196;61042;-84
2021/10/02 13:42:29;;;;;;;;;;;;;;;19.71;60.02;99192.77;111877;1197;67013;-85